Time;durP1;ratioP1;P1;durP2;ratioP2;P2;SDS_P1;SDS_P2;PMS_P1;PMS_P2;Temp;Humidity;BMP_temperature;BMP_pressure;BME280_temperature;BME280_humidity;BME280_pressure;Samples;Min_cycle;Max_cycle;Signal;HPM_P1;HPM_P2
2023/12/15 00:09:21;;;;;;;;;;;4.40;99.90;;;;;;6696372;88;20703;-78
2023/12/15 00:19:21;;;;;;;;;;;4.20;99.90;;;;;;6700033;88;20087;-79
2023/12/15 00:29:23;;;;;;;;;;;4.10;99.90;;;;;;6694967;88;20106;-78
2023/12/15 00:39:23;;;;;;;;;;;4.00;99.90;;;;;;6702756;88;20092;-78
2023/12/15 00:49:24;;;;;;;;;;;4.00;99.90;;;;;;6700724;88;20144;-78
2023/12/15 00:59:24;;;;;;;;;;;3.90;99.90;;;;;;6698308;88;20506;-78
2023/12/15 01:09:25;;;;;;;;;;;3.90;99.90;;;;;;6702119;88;20070;-78
2023/12/15 01:19:26;;;;;;;;;;;4.00;99.90;;;;;;6701533;88;20055;-78
2023/12/15 01:29:26;;;;;;;;;;;4.00;99.90;;;;;;6697936;88;20584;-78
2023/12/15 01:39:27;;;;;;;;;;;4.00;99.90;;;;;;6701428;88;20094;-78
2023/12/15 01:49:28;;;;;;;;;;;4.10;99.90;;;;;;6696250;88;20560;-78
2023/12/15 01:59:42;;;;;;;;;;;4.00;99.90;;;;;;6700508;88;20555;-78
2023/12/15 02:09:42;;;;;;;;;;;4.10;99.90;;;;;;6701010;88;20644;-78
2023/12/15 02:19:43;;;;;;;;;;;4.20;99.90;;;;;;6698585;88;20103;-78
2023/12/15 02:29:43;;;;;;;;;;;4.30;99.90;;;;;;6698917;88;20191;-77
2023/12/15 02:39:44;;;;;;;;;;;4.50;99.90;;;;;;6700151;88;20117;-78
2023/12/15 02:49:44;;;;;;;;;;;4.50;99.90;;;;;;6699935;88;20063;-78
2023/12/15 02:59:44;;;;;;;;;;;4.50;99.90;;;;;;6694478;88;20089;-78
2023/12/15 03:09:45;;;;;;;;;;;4.50;99.90;;;;;;6698153;88;20455;-78
2023/12/15 03:19:45;;;;;;;;;;;4.50;99.90;;;;;;6699708;88;20076;-78
2023/12/15 03:29:46;;;;;;;;;;;4.50;99.90;;;;;;6697455;88;20059;-77
2023/12/15 03:39:46;;;;;;;;;;;4.50;99.90;;;;;;6696726;88;20180;-77
2023/12/15 03:49:47;;;;;;;;;;;4.60;99.90;;;;;;6699430;88;20082;-78
2023/12/15 03:59:47;;;;;;;;;;;4.60;99.90;;;;;;6698915;88;20187;-78
2023/12/15 04:09:48;;;;;;;;;;;4.60;99.90;;;;;;6696754;88;20068;-77
2023/12/15 04:19:48;;;;;;;;;;;4.70;99.90;;;;;;6695811;88;20088;-78
2023/12/15 04:29:49;;;;;;;;;;;4.70;99.90;;;;;;6697587;88;20560;-78
2023/12/15 04:49:52;;;;;;;;;;;4.80;99.90;;;;;;6734280;88;20120;-81
2023/12/15 04:59:53;;;;;;;;;;;4.90;99.90;;;;;;6729313;88;20087;-81
2023/12/15 05:09:54;;;;;;;;;;;4.90;99.90;;;;;;6725472;88;20076;-79
2023/12/15 05:19:55;;;;;;;;;;;4.90;99.90;;;;;;6730705;88;20023;-79
2023/12/15 05:29:55;;;;;;;;;;;5.00;99.90;;;;;;6731404;88;20035;-80
2023/12/15 05:39:57;;;;;;;;;;;4.90;99.90;;;;;;6728460;88;20054;-81
2023/12/15 05:49:57;;;;;;;;;;;5.00;99.90;;;;;;6716130;88;20063;-80
2023/12/15 05:59:58;;;;;;;;;;;4.90;99.90;;;;;;6712759;88;20116;-80
2023/12/15 06:09:58;;;;;;;;;;;4.90;99.90;;;;;;6716369;88;20084;-81
2023/12/15 06:19:59;;;;;;;;;;;4.80;99.90;;;;;;6723962;88;20522;-80
2023/12/15 06:30:05;;;;;;;;;;;4.80;99.90;;;;;;6725589;88;20140;-80
2023/12/15 06:40:06;;;;;;;;;;;4.80;99.90;;;;;;6704303;88;20060;-81
2023/12/15 06:50:06;;;;;;;;;;;4.80;99.90;;;;;;6708627;88;20052;-82
2023/12/15 07:00:07;;;;;;;;;;;4.90;99.90;;;;;;6704175;88;20059;-81
2023/12/15 07:10:08;;;;;;;;;;;5.00;99.90;;;;;;6707638;88;20055;-81
2023/12/15 07:20:08;;;;;;;;;;;5.00;99.90;;;;;;6705435;88;20131;-81
2023/12/15 07:30:09;;;;;;;;;;;5.10;99.90;;;;;;6701820;88;20100;-82
2023/12/15 07:40:10;;;;;;;;;;;5.20;99.90;;;;;;6708114;88;20122;-82
2023/12/15 07:50:10;;;;;;;;;;;5.30;99.90;;;;;;6707979;88;20036;-82
2023/12/15 08:00:11;;;;;;;;;;;5.30;99.90;;;;;;6710020;88;20105;-82
2023/12/15 08:10:12;;;;;;;;;;;5.30;99.90;;;;;;6709179;88;20044;-82
2023/12/15 08:20:13;;;;;;;;;;;5.30;99.90;;;;;;6716052;88;20083;-82
2023/12/15 08:30:13;;;;;;;;;;;5.40;99.90;;;;;;6716037;88;20090;-81
2023/12/15 08:40:14;;;;;;;;;;;5.50;99.90;;;;;;6714088;88;20653;-82
2023/12/15 08:50:15;;;;;;;;;;;5.70;99.90;;;;;;6712269;88;20274;-82
2023/12/15 09:00:15;;;;;;;;;;;5.80;99.90;;;;;;6713109;88;20020;-81
2023/12/15 09:10:16;;;;;;;;;;;5.80;99.90;;;;;;6715529;88;20055;-81
2023/12/15 09:20:16;;;;;;;;;;;6.00;99.90;;;;;;6709912;88;20648;-82
2023/12/15 09:30:17;;;;;;;;;;;6.00;99.90;;;;;;6710807;88;20072;-81
2023/12/15 09:40:22;;;;;;;;;;;6.20;99.90;;;;;;6706776;88;20074;-81
2023/12/15 09:50:23;;;;;;;;;;;6.20;99.90;;;;;;6704330;88;20036;-81
2023/12/15 10:00:24;;;;;;;;;;;6.30;99.90;;;;;;6711827;88;20550;-82
2023/12/15 10:10:26;;;;;;;;;;;6.40;99.90;;;;;;6710901;88;20039;-81
2023/12/15 10:20:28;;;;;;;;;;;6.40;99.90;;;;;;6711111;88;20065;-81
2023/12/15 10:30:29;;;;;;;;;;;6.40;99.90;;;;;;6712018;88;20615;-82
2023/12/15 10:40:30;;;;;;;;;;;6.50;99.90;;;;;;6716352;77;20100;-77
2023/12/15 10:50:31;;;;;;;;;;;6.70;99.90;;;;;;6726911;88;20083;-77
2023/12/15 11:00:31;;;;;;;;;;;7.00;99.90;;;;;;6737015;88;20100;-76
2023/12/15 11:10:32;;;;;;;;;;;7.20;99.90;;;;;;6735024;88;20085;-77
2023/12/15 11:20:33;;;;;;;;;;;7.00;99.90;;;;;;6737678;88;20096;-78
2023/12/15 11:30:41;;;;;;;;;;;7.30;99.90;;;;;;6737025;88;20082;-77
2023/12/15 11:40:42;;;;;;;;;;;7.40;99.90;;;;;;6734072;88;20516;-77
2023/12/15 11:50:43;;;;;;;;;;;7.40;99.90;;;;;;6731580;88;20116;-78
2023/12/15 12:00:44;;;;;;;;;;;7.60;99.90;;;;;;6737440;88;20089;-77
2023/12/15 12:10:44;;;;;;;;;;;7.70;99.90;;;;;;6732594;88;20071;-77
2023/12/15 12:20:45;;;;;;;;;;;7.90;99.90;;;;;;6737247;88;20132;-78
2023/12/15 12:30:47;;;;;;;;;;;7.90;99.90;;;;;;6739075;88;20066;-77
2023/12/15 12:40:48;;;;;;;;;;;7.90;99.90;;;;;;6735239;87;20090;-77
2023/12/15 12:50:48;;;;;;;;;;;7.90;99.90;;;;;;6734953;88;20084;-77
2023/12/15 13:00:51;;;;;;;;;;;8.10;99.90;;;;;;6730582;88;20062;-77
2023/12/15 13:10:52;;;;;;;;;;;8.20;99.90;;;;;;6732248;88;20069;-77
2023/12/15 13:20:52;;;;;;;;;;;8.40;99.90;;;;;;6732773;88;20573;-78
2023/12/15 13:30:55;;;;;;;;;;;8.40;99.90;;;;;;6732024;88;20140;-78
2023/12/15 13:40:56;;;;;;;;;;;8.50;99.90;;;;;;6735095;88;20066;-78
2023/12/15 13:50:57;;;;;;;;;;;8.70;99.90;;;;;;6733932;88;20100;-78
2023/12/15 14:00:58;;;;;;;;;;;8.50;99.90;;;;;;6734592;88;20591;-77
2023/12/15 14:10:58;;;;;;;;;;;8.40;99.90;;;;;;6735068;88;20090;-77
2023/12/15 14:20:59;;;;;;;;;;;8.60;99.90;;;;;;6731785;88;20082;-77
2023/12/15 14:30:59;;;;;;;;;;;8.50;99.90;;;;;;6733930;88;20158;-77
2023/12/15 14:41:00;;;;;;;;;;;8.50;99.90;;;;;;6731110;88;20083;-77
2023/12/15 14:51:00;;;;;;;;;;;8.30;99.90;;;;;;6730719;88;20083;-78
2023/12/15 15:01:01;;;;;;;;;;;8.20;99.90;;;;;;6731498;88;20525;-78
2023/12/15 15:11:01;;;;;;;;;;;8.10;99.90;;;;;;6729027;88;20058;-78
2023/12/15 15:21:03;;;;;;;;;;;8.10;99.90;;;;;;6735917;88;20133;-78
2023/12/15 15:31:04;;;;;;;;;;;8.00;99.90;;;;;;6737022;88;20070;-78
2023/12/15 15:41:07;;;;;;;;;;;8.00;99.90;;;;;;6737526;88;20071;-78
2023/12/15 15:51:07;;;;;;;;;;;8.10;99.90;;;;;;6734063;88;20526;-77
2023/12/15 16:01:08;;;;;;;;;;;7.90;99.90;;;;;;6737511;88;20195;-78
2023/12/15 16:11:08;;;;;;;;;;;7.90;99.90;;;;;;6735334;88;20058;-77
2023/12/15 16:21:09;;;;;;;;;;;7.90;99.90;;;;;;6732063;88;20178;-77
2023/12/15 16:31:19;;;;;;;;;;;8.10;99.90;;;;;;6723333;88;20587;-79
2023/12/15 16:41:30;;;;;;;;;;;7.90;99.90;;;;;;6740669;88;20067;-80
2023/12/15 17:02:12;;;;;;;;;;;7.80;99.90;;;;;;6727042;88;20411;-78
2023/12/15 17:12:13;;;;;;;;;;;7.60;99.90;;;;;;6723806;88;20138;-78
2023/12/15 17:22:13;;;;;;;;;;;7.80;99.90;;;;;;6714537;88;20173;-78
2023/12/15 17:32:15;;;;;;;;;;;7.70;99.90;;;;;;6718200;88;20055;-78
2023/12/15 17:42:15;;;;;;;;;;;7.60;99.90;;;;;;6718624;88;20043;-77
2023/12/15 17:52:15;;;;;;;;;;;7.50;99.90;;;;;;6720949;88;20063;-78
2023/12/15 18:02:17;;;;;;;;;;;7.50;99.90;;;;;;6729602;88;20051;-78
2023/12/15 18:12:17;;;;;;;;;;;7.50;99.90;;;;;;6716043;88;20080;-77
2023/12/15 18:22:18;;;;;;;;;;;7.50;99.90;;;;;;6711672;88;20080;-79
2023/12/15 18:32:19;;;;;;;;;;;7.60;99.90;;;;;;6714479;88;20098;-77
2023/12/15 18:42:19;;;;;;;;;;;7.70;99.90;;;;;;6715186;88;20515;-79
2023/12/15 18:52:21;;;;;;;;;;;7.80;99.90;;;;;;6714608;88;20090;-78
2023/12/15 19:02:23;;;;;;;;;;;7.70;99.90;;;;;;6713971;88;20052;-79
2023/12/15 19:12:23;;;;;;;;;;;7.80;99.90;;;;;;6728425;88;20622;-78
2023/12/15 19:22:23;;;;;;;;;;;7.60;99.90;;;;;;6721428;88;20052;-79
2023/12/15 19:32:24;;;;;;;;;;;7.70;99.90;;;;;;6719589;88;20261;-78
2023/12/15 19:42:24;;;;;;;;;;;7.60;99.90;;;;;;6715086;88;20091;-79
2023/12/15 19:52:25;;;;;;;;;;;7.70;99.90;;;;;;6712890;88;20048;-78
2023/12/15 20:02:25;;;;;;;;;;;7.70;99.90;;;;;;6712829;88;20194;-79
2023/12/15 20:12:31;;;;;;;;;;;7.70;99.90;;;;;;6711361;88;20054;-79
2023/12/15 20:22:33;;;;;;;;;;;7.50;99.90;;;;;;6711977;88;20064;-79
2023/12/15 20:32:34;;;;;;;;;;;7.60;99.90;;;;;;6722602;88;20058;-79
2023/12/15 20:42:34;;;;;;;;;;;7.50;99.90;;;;;;6717648;88;20608;-79
2023/12/15 20:52:35;;;;;;;;;;;7.50;99.90;;;;;;6711398;88;20107;-79
2023/12/15 21:02:36;;;;;;;;;;;7.60;99.90;;;;;;6723764;88;20076;-79
2023/12/15 21:12:39;;;;;;;;;;;7.80;99.90;;;;;;6702782;88;20516;-80
2023/12/15 21:22:40;;;;;;;;;;;7.70;99.90;;;;;;6708041;88;20053;-81
2023/12/15 21:32:40;;;;;;;;;;;7.60;99.90;;;;;;6716360;88;20503;-80
2023/12/15 21:42:41;;;;;;;;;;;7.70;99.90;;;;;;6712807;88;20063;-78
2023/12/15 21:52:41;;;;;;;;;;;7.70;99.90;;;;;;6710056;88;20185;-78
2023/12/15 22:02:42;;;;;;;;;;;7.70;99.90;;;;;;6713245;88;20879;-78
2023/12/15 22:12:43;;;;;;;;;;;7.60;99.90;;;;;;6712556;88;20063;-78
2023/12/15 22:22:43;;;;;;;;;;;7.60;99.90;;;;;;6709803;88;20110;-78
2023/12/15 22:32:43;;;;;;;;;;;7.70;99.90;;;;;;6711631;88;20087;-78
2023/12/15 22:42:44;;;;;;;;;;;7.70;99.90;;;;;;6704515;88;20068;-79
2023/12/15 22:52:44;;;;;;;;;;;7.70;99.90;;;;;;6714608;88;20081;-79
2023/12/15 23:13:47;;;;;;;;;;;7.70;99.90;;;;;;6731858;88;20571;-81
2023/12/15 23:23:47;;;;;;;;;;;7.70;99.90;;;;;;6750074;88;20066;-81
2023/12/15 23:33:48;;;;;;;;;;;7.70;99.90;;;;;;6748623;88;20078;-81
2023/12/15 23:43:48;;;;;;;;;;;7.70;99.90;;;;;;6749795;88;20532;-82
2023/12/15 23:53:49;;;;;;;;;;;7.80;99.90;;;;;;6757262;88;20069;-81
